createdAt,value
2022-12-25T00:00:21.440Z,99383.00
2022-12-25T00:01:21.016Z,99377.00
2022-12-25T00:02:21.115Z,99379.00
2022-12-25T00:03:21.180Z,99374.00
2022-12-25T00:04:21.067Z,99376.00
2022-12-25T00:05:21.113Z,99374.00
2022-12-25T00:06:21.105Z,99375.00
2022-12-25T00:07:21.060Z,99375.00
2022-12-25T00:08:21.067Z,99376.00
2022-12-25T00:09:21.102Z,99378.00
2022-12-25T00:10:21.129Z,99377.00
2022-12-25T00:11:21.132Z,99377.00
2022-12-25T00:12:21.151Z,99375.00
2022-12-25T00:13:21.175Z,99378.00
2022-12-25T00:14:21.191Z,99376.00
2022-12-25T00:15:21.209Z,99372.00
2022-12-25T00:16:21.236Z,99373.00
2022-12-25T00:17:21.208Z,99364.00
2022-12-25T00:18:21.225Z,99368.00
2022-12-25T00:19:21.243Z,99366.00
2022-12-25T00:20:21.274Z,99370.00
2022-12-25T00:21:21.339Z,99374.00
2022-12-25T00:22:21.314Z,99374.00
2022-12-25T00:23:21.324Z,99373.00
2022-12-25T00:24:21.355Z,99374.00
2022-12-25T00:25:21.397Z,99373.00
2022-12-25T00:26:21.393Z,99372.00
2022-12-25T00:27:21.409Z,99371.00
2022-12-25T00:28:21.461Z,99372.00
2022-12-25T00:29:21.436Z,99372.00
2022-12-25T00:30:21.435Z,99383.00
2022-12-25T00:31:21.527Z,99380.00
2022-12-25T00:32:21.505Z,99375.00
2022-12-25T00:33:21.511Z,99376.00
2022-12-25T00:34:21.532Z,99367.00
2022-12-25T00:35:21.557Z,99370.00
2022-12-25T00:36:21.574Z,99367.00
2022-12-25T00:37:21.637Z,99369.00
2022-12-25T00:38:21.633Z,99364.00
2022-12-25T00:39:21.636Z,99373.00
2022-12-25T00:40:21.663Z,99368.00
2022-12-25T00:41:21.661Z,99371.00
2022-12-25T00:42:21.618Z,99364.00
2022-12-25T00:43:21.647Z,99358.00
2022-12-25T00:44:21.669Z,99360.00
2022-12-25T00:45:21.744Z,99360.00
2022-12-25T00:46:21.837Z,99358.00
2022-12-25T00:47:21.801Z,99365.00
2022-12-25T00:48:21.683Z,99363.00
2022-12-25T00:49:21.709Z,99367.00
2022-12-25T00:50:21.733Z,99368.00
2022-12-25T00:51:21.746Z,99373.00
2022-12-25T00:52:21.778Z,99371.00
2022-12-25T00:53:21.780Z,99379.00
2022-12-25T00:54:21.807Z,99377.00
2022-12-25T00:55:21.824Z,99375.00
2022-12-25T00:56:21.845Z,99374.00
2022-12-25T00:57:21.903Z,99377.00
2022-12-25T00:58:21.879Z,99378.00
2022-12-25T00:59:21.898Z,99376.00
2022-12-25T01:00:21.920Z,99373.00
2022-12-25T01:01:22.160Z,99378.00
2022-12-25T01:02:22.116Z,99374.00
2022-12-25T01:03:22.043Z,99374.00
2022-12-25T01:04:21.953Z,99378.00
2022-12-25T01:05:22.003Z,99376.00
2022-12-25T01:06:21.989Z,99379.00
2022-12-25T01:07:22.013Z,99381.00
2022-12-25T01:08:22.034Z,99379.00
2022-12-25T01:09:22.057Z,99381.00
2022-12-25T01:10:22.025Z,99381.00
2022-12-25T01:11:22.037Z,99380.00
2022-12-25T01:12:22.067Z,99370.00
2022-12-25T01:13:22.127Z,99370.00
2022-12-25T01:14:22.157Z,99371.00
2022-12-25T01:15:22.163Z,99368.00
2022-12-25T01:16:22.179Z,99374.00
2022-12-25T01:17:22.126Z,99376.00
2022-12-25T01:18:22.123Z,99377.00
2022-12-25T01:19:22.140Z,99381.00
2022-12-25T01:20:22.139Z,99382.00
2022-12-25T01:21:22.192Z,99379.00
2022-12-25T01:22:22.147Z,99375.00
2022-12-25T01:23:22.177Z,99376.00
2022-12-25T01:24:22.194Z,99373.00
2022-12-25T01:25:22.149Z,99376.00
2022-12-25T01:26:22.223Z,99377.00
2022-12-25T01:27:22.214Z,99382.00
2022-12-25T01:28:22.187Z,99380.00
2022-12-25T01:29:22.263Z,99379.00
2022-12-25T01:30:22.189Z,99378.00
2022-12-25T01:31:22.396Z,99371.00
2022-12-25T01:32:22.177Z,99375.00
2022-12-25T01:33:22.189Z,99372.00
2022-12-25T01:34:22.166Z,99374.00
2022-12-25T01:35:22.179Z,99381.00
2022-12-25T01:36:22.328Z,99379.00
2022-12-25T01:37:22.162Z,99381.00
2022-12-25T01:38:22.182Z,99380.00
2022-12-25T01:39:22.184Z,99382.00
2022-12-25T01:40:22.225Z,99385.00
2022-12-25T01:41:22.251Z,99384.00
2022-12-25T01:42:22.215Z,99381.00
2022-12-25T01:43:22.245Z,99384.00
2022-12-25T01:44:22.235Z,99386.00
2022-12-25T01:45:22.342Z,99388.00
2022-12-25T01:46:22.322Z,99391.00
2022-12-25T01:47:22.263Z,99394.00
2022-12-25T01:48:22.255Z,99396.00
2022-12-25T01:49:22.299Z,99400.00
2022-12-25T01:50:22.304Z,99398.00
2022-12-25T01:51:22.330Z,99401.00
2022-12-25T01:52:24.322Z,99402.00
2022-12-25T01:53:22.372Z,99403.00
2022-12-25T01:54:22.389Z,99396.00
2022-12-25T01:55:22.432Z,99397.00
2022-12-25T01:56:22.398Z,99392.00
2022-12-25T01:57:22.406Z,99392.00
2022-12-25T01:58:22.417Z,99396.00
2022-12-25T01:59:22.434Z,99390.00
2022-12-25T02:00:22.470Z,99395.00
2022-12-25T02:01:22.672Z,99398.00
2022-12-25T02:02:22.694Z,99399.00
2022-12-25T02:03:22.720Z,99402.00
2022-12-25T02:04:22.557Z,99403.00
2022-12-25T02:05:22.586Z,99403.00
2022-12-25T02:06:22.553Z,99408.00
2022-12-25T02:07:22.579Z,99409.00
2022-12-25T02:08:22.572Z,99405.00
2022-12-25T02:09:22.590Z,99401.00
2022-12-25T02:10:22.635Z,99402.00
2022-12-25T02:11:22.639Z,99401.00
2022-12-25T02:12:22.606Z,99395.00
2022-12-25T02:13:22.628Z,99395.00
2022-12-25T02:14:22.635Z,99389.00
2022-12-25T02:15:22.659Z,99397.00
2022-12-25T02:16:22.741Z,99389.00
2022-12-25T02:17:22.784Z,99391.00
2022-12-25T02:18:22.691Z,99386.00
2022-12-25T02:19:22.697Z,99381.00
2022-12-25T02:20:22.728Z,99376.00
2022-12-25T02:21:22.701Z,99380.00
2022-12-25T02:22:22.726Z,99379.00
2022-12-25T02:23:22.755Z,99380.00
2022-12-25T02:24:22.765Z,99379.00
2022-12-25T02:25:22.793Z,99380.00
2022-12-25T02:26:22.764Z,99379.00
2022-12-25T02:27:22.798Z,99382.00
2022-12-25T02:28:22.813Z,99386.00
2022-12-25T02:29:22.855Z,99385.00
2022-12-25T02:30:22.877Z,99380.00
2022-12-25T02:31:22.920Z,99386.00
2022-12-25T02:32:22.917Z,99388.00
2022-12-25T02:33:22.950Z,99388.00
2022-12-25T02:34:22.926Z,99384.00
2022-12-25T02:35:22.938Z,99389.00
2022-12-25T02:36:22.946Z,99384.00
2022-12-25T02:37:22.948Z,99391.00
2022-12-25T02:38:22.974Z,99384.00
2022-12-25T02:39:22.994Z,99385.00
2022-12-25T02:40:23.038Z,99380.00
2022-12-25T02:41:23.013Z,99377.00
2022-12-25T02:42:22.998Z,99376.00
2022-12-25T02:43:23.000Z,99374.00
2022-12-25T02:44:23.038Z,99376.00
2022-12-25T02:45:23.083Z,99378.00
2022-12-25T02:46:23.146Z,99381.00
2022-12-25T02:47:23.079Z,99379.00
2022-12-25T02:48:23.067Z,99377.00
2022-12-25T02:49:23.111Z,99377.00
2022-12-25T02:50:23.079Z,99378.00
2022-12-25T02:51:23.078Z,99378.00
2022-12-25T02:52:23.090Z,99377.00
2022-12-25T02:53:23.139Z,99374.00
2022-12-25T02:54:23.141Z,99375.00
2022-12-25T02:55:23.163Z,99372.00
2022-12-25T02:56:23.172Z,99365.00
2022-12-25T02:57:23.200Z,99363.00
2022-12-25T02:58:23.213Z,99358.00
2022-12-25T02:59:23.253Z,99362.00
2022-12-25T03:00:23.263Z,99357.00
2022-12-25T03:01:23.454Z,99360.00
2022-12-25T03:02:23.305Z,99363.00
2022-12-25T03:03:23.367Z,99363.00
2022-12-25T03:04:23.285Z,99366.00
2022-12-25T03:05:23.335Z,99359.00
2022-12-25T03:06:23.334Z,99363.00
2022-12-25T03:07:23.311Z,99359.00
2022-12-25T03:08:23.327Z,99356.00
2022-12-25T03:09:23.331Z,99361.00
2022-12-25T03:10:23.363Z,99357.00
2022-12-25T03:11:23.380Z,99359.00
2022-12-25T03:12:23.385Z,99357.00
2022-12-25T03:13:23.401Z,99357.00
2022-12-25T03:14:23.445Z,99359.00
2022-12-25T03:15:23.399Z,99363.00
2022-12-25T03:16:23.493Z,99361.00
2022-12-25T03:17:23.429Z,99358.00
2022-12-25T03:18:23.457Z,99351.00
2022-12-25T03:19:23.473Z,99354.00
2022-12-25T03:20:23.527Z,99352.00
2022-12-25T03:21:23.561Z,99351.00
2022-12-25T03:22:23.534Z,99346.00
2022-12-25T03:23:23.559Z,99351.00
2022-12-25T03:24:23.576Z,99349.00
2022-12-25T03:25:23.588Z,99349.00
2022-12-25T03:26:23.628Z,99350.00
2022-12-25T03:27:23.630Z,99353.00
2022-12-25T03:28:23.652Z,99357.00
2022-12-25T03:29:28.524Z,99354.00
2022-12-25T03:30:23.688Z,99355.00
2022-12-25T03:31:23.721Z,99357.00
2022-12-25T03:32:23.651Z,99354.00
2022-12-25T03:33:44.601Z,99354.00
2022-12-25T03:34:23.691Z,99353.00
2022-12-25T03:35:23.703Z,99355.00
2022-12-25T03:36:23.733Z,99355.00
2022-12-25T03:37:23.765Z,99359.00
2022-12-25T03:38:23.792Z,99359.00
2022-12-25T03:39:23.804Z,99355.00
2022-12-25T03:40:23.821Z,99359.00
2022-12-25T03:41:23.831Z,99361.00
2022-12-25T03:42:23.861Z,99358.00
2022-12-25T03:43:23.866Z,99353.00
2022-12-25T03:44:23.883Z,99348.00
2022-12-25T03:45:23.879Z,99348.00
2022-12-25T03:46:24.005Z,99343.00
2022-12-25T03:47:23.885Z,99339.00
2022-12-25T03:48:23.899Z,99341.00
2022-12-25T03:49:23.932Z,99343.00
2022-12-25T03:50:23.916Z,99341.00
2022-12-25T03:51:23.933Z,99339.00
2022-12-25T03:52:23.953Z,99340.00
2022-12-25T03:53:23.994Z,99339.00
2022-12-25T03:54:24.007Z,99336.00
2022-12-25T03:55:24.031Z,99340.00
2022-12-25T03:56:24.052Z,99344.00
2022-12-25T03:57:24.062Z,99348.00
2022-12-25T03:58:24.092Z,99345.00
2022-12-25T03:59:24.459Z,99354.00
2022-12-25T04:00:24.099Z,99354.00
2022-12-25T04:01:24.253Z,99356.00
2022-12-25T04:02:24.293Z,99360.00
2022-12-25T04:03:24.212Z,99359.00
2022-12-25T04:04:24.161Z,99360.00
2022-12-25T04:05:24.178Z,99356.00
2022-12-25T04:06:24.195Z,99356.00
2022-12-25T04:07:24.226Z,99354.00
2022-12-25T04:08:24.261Z,99357.00
2022-12-25T04:09:24.265Z,99353.00
2022-12-25T04:10:24.268Z,99355.00
2022-12-25T04:11:24.320Z,99347.00
2022-12-25T04:12:24.293Z,99349.00
2022-12-25T04:13:24.324Z,99347.00
2022-12-25T04:14:24.326Z,99346.00
2022-12-25T04:15:24.420Z,99339.00
2022-12-25T04:16:24.403Z,99340.00
2022-12-25T04:17:24.385Z,99337.00
2022-12-25T04:18:24.412Z,99342.00
2022-12-25T04:19:24.438Z,99345.00
2022-12-25T04:20:24.461Z,99345.00
2022-12-25T04:21:24.532Z,99350.00
2022-12-25T04:22:24.494Z,99351.00
2022-12-25T04:23:24.538Z,99353.00
2022-12-25T04:24:24.510Z,99358.00
2022-12-25T04:25:24.555Z,99356.00
2022-12-25T04:26:24.529Z,99358.00
2022-12-25T04:27:24.557Z,99354.00
2022-12-25T04:28:24.576Z,99350.00
2022-12-25T04:29:24.603Z,99344.00
2022-12-25T04:30:24.616Z,99351.00
2022-12-25T04:31:24.672Z,99353.00
2022-12-25T04:32:24.615Z,99357.00
2022-12-25T04:33:24.625Z,99358.00
2022-12-25T04:34:24.639Z,99353.00
2022-12-25T04:35:24.656Z,99350.00
2022-12-25T04:36:24.678Z,99356.00
2022-12-25T04:37:24.706Z,99356.00
2022-12-25T04:38:24.720Z,99355.00
2022-12-25T04:39:24.750Z,99355.00
2022-12-25T04:40:24.754Z,99351.00
2022-12-25T04:41:24.810Z,99354.00
2022-12-25T04:42:24.774Z,99351.00
2022-12-25T04:43:24.792Z,99345.00
2022-12-25T04:44:24.812Z,99347.00
2022-12-25T04:45:24.811Z,99345.00
2022-12-25T04:46:24.888Z,99343.00
2022-12-25T04:47:24.820Z,99344.00
2022-12-25T04:48:24.824Z,99333.00
2022-12-25T04:49:24.849Z,99331.00
2022-12-25T04:50:24.898Z,99328.00
2022-12-25T04:51:24.864Z,99325.00
2022-12-25T04:52:24.900Z,99328.00
2022-12-25T04:53:24.921Z,99329.00
2022-12-25T04:54:24.937Z,99328.00
2022-12-25T04:55:24.935Z,99333.00
2022-12-25T04:56:24.952Z,99329.00
2022-12-25T04:57:24.989Z,99324.00
2022-12-25T04:58:24.935Z,99329.00
2022-12-25T04:59:24.950Z,99325.00
2022-12-25T05:00:25.010Z,99322.00
2022-12-25T05:01:25.127Z,99325.00
2022-12-25T05:02:25.323Z,99317.00
2022-12-25T05:03:25.045Z,99315.00
2022-12-25T05:04:25.003Z,99313.00
2022-12-25T05:05:25.036Z,99316.00
2022-12-25T05:06:25.051Z,99309.00
2022-12-25T05:07:25.110Z,99305.00
2022-12-25T05:08:25.067Z,99304.00
2022-12-25T05:09:25.144Z,99303.00
2022-12-25T05:10:25.130Z,99304.00
2022-12-25T05:11:25.149Z,99303.00
2022-12-25T05:12:25.163Z,99306.00
2022-12-25T05:13:25.186Z,99306.00
2022-12-25T05:14:25.192Z,99313.00
2022-12-25T05:15:25.225Z,99315.00
2022-12-25T05:16:25.329Z,99311.00
2022-12-25T05:17:25.202Z,99315.00
2022-12-25T05:18:25.232Z,99317.00
2022-12-25T05:19:25.263Z,99317.00
2022-12-25T05:20:25.285Z,99317.00
2022-12-25T05:21:25.297Z,99321.00
2022-12-25T05:22:25.340Z,99320.00
2022-12-25T05:23:25.424Z,99322.00
2022-12-25T05:24:25.344Z,99326.00
2022-12-25T05:25:25.382Z,99325.00
2022-12-25T05:26:25.391Z,99319.00
2022-12-25T05:27:25.409Z,99321.00
2022-12-25T05:28:25.435Z,99319.00
2022-12-25T05:29:25.495Z,99321.00
2022-12-25T05:30:25.472Z,99321.00
2022-12-25T05:31:25.525Z,99324.00
2022-12-25T05:32:25.509Z,99319.00
2022-12-25T05:33:25.523Z,99323.00
2022-12-25T05:34:25.549Z,99318.00
2022-12-25T05:35:25.574Z,99327.00
2022-12-25T05:36:25.606Z,99323.00
2022-12-25T05:37:25.585Z,99324.00
2022-12-25T05:38:25.606Z,99328.00
2022-12-25T05:39:25.657Z,99323.00
2022-12-25T05:40:25.631Z,99330.00
2022-12-25T05:41:30.611Z,99331.00
2022-12-25T05:42:25.666Z,99331.00
2022-12-25T05:43:25.653Z,99326.00
2022-12-25T05:44:25.659Z,99327.00
2022-12-25T05:45:25.698Z,99326.00
2022-12-25T05:46:25.716Z,99326.00
2022-12-25T05:47:25.748Z,99325.00
2022-12-25T05:48:25.736Z,99320.00
2022-12-25T05:49:25.765Z,99320.00
2022-12-25T05:50:25.787Z,99315.00
2022-12-25T05:51:25.815Z,99316.00
2022-12-25T05:52:25.820Z,99316.00
2022-12-25T05:53:25.839Z,99313.00
2022-12-25T05:54:25.869Z,99320.00
2022-12-25T05:55:25.892Z,99317.00
2022-12-25T05:56:25.895Z,99313.00
2022-12-25T05:57:25.915Z,99316.00
2022-12-25T05:58:25.928Z,99310.00
2022-12-25T05:59:25.960Z,99313.00
2022-12-25T06:00:25.976Z,99314.00
2022-12-25T06:01:26.089Z,99313.00
2022-12-25T06:02:26.316Z,99309.00
2022-12-25T06:03:26.117Z,99304.00
2022-12-25T06:04:26.046Z,99304.00
2022-12-25T06:05:26.068Z,99306.00
2022-12-25T06:06:26.097Z,99305.00
2022-12-25T06:07:26.067Z,99305.00
2022-12-25T06:08:26.086Z,99310.00
2022-12-25T06:09:26.105Z,99310.00
2022-12-25T06:10:26.123Z,99314.00
2022-12-25T06:11:26.166Z,99317.00
2022-12-25T06:12:26.159Z,99318.00
2022-12-25T06:13:26.122Z,99322.00
2022-12-25T06:14:26.153Z,99322.00
2022-12-25T06:15:26.154Z,99321.00
2022-12-25T06:16:26.204Z,99328.00
2022-12-25T06:17:26.207Z,99327.00
2022-12-25T06:18:26.176Z,99333.00
2022-12-25T06:19:26.185Z,99333.00
2022-12-25T06:20:26.213Z,99335.00
2022-12-25T06:21:26.243Z,99336.00
2022-12-25T06:22:26.244Z,99335.00
2022-12-25T06:23:26.308Z,99335.00
2022-12-25T06:24:26.240Z,99335.00
2022-12-25T06:25:26.349Z,99335.00
2022-12-25T06:26:26.292Z,99335.00
2022-12-25T06:27:26.297Z,99332.00
2022-12-25T06:28:26.323Z,99328.00
2022-12-25T06:29:26.344Z,99330.00
2022-12-25T06:30:26.316Z,99328.00
2022-12-25T06:31:26.419Z,99318.00
2022-12-25T06:32:26.351Z,99318.00
2022-12-25T06:33:26.376Z,99320.00
2022-12-25T06:34:26.377Z,99321.00
2022-12-25T06:35:26.403Z,99316.00
2022-12-25T06:36:26.434Z,99316.00
2022-12-25T06:37:26.453Z,99313.00
2022-12-25T06:38:26.470Z,99311.00
2022-12-25T06:39:26.473Z,99307.00
2022-12-25T06:40:26.483Z,99311.00
2022-12-25T06:41:26.512Z,99311.00
2022-12-25T06:42:26.529Z,99315.00
2022-12-25T06:43:26.555Z,99311.00
2022-12-25T06:44:26.574Z,99317.00
2022-12-25T06:45:26.677Z,99315.00
2022-12-25T06:46:26.776Z,99319.00
2022-12-25T06:47:26.622Z,99323.00
2022-12-25T06:48:26.625Z,99323.00
2022-12-25T06:49:26.670Z,99328.00
2022-12-25T06:50:26.679Z,99328.00
2022-12-25T06:51:26.705Z,99331.00
2022-12-25T06:52:26.717Z,99328.00
2022-12-25T06:53:26.723Z,99331.00
2022-12-25T06:54:26.733Z,99331.00
2022-12-25T06:55:26.748Z,99327.00
2022-12-25T06:56:26.778Z,99330.00
2022-12-25T06:57:26.812Z,99324.00
2022-12-25T06:58:26.823Z,99325.00
2022-12-25T06:59:26.867Z,99315.00
2022-12-25T07:00:26.836Z,99316.00
2022-12-25T07:01:26.928Z,99314.00
2022-12-25T07:02:27.039Z,99312.00
2022-12-25T07:03:26.922Z,99307.00
2022-12-25T07:04:26.854Z,99307.00
2022-12-25T07:05:26.901Z,99302.00
2022-12-25T07:06:26.910Z,99301.00
2022-12-25T07:07:27.173Z,99300.00
2022-12-25T07:08:26.940Z,99295.00
2022-12-25T07:09:26.972Z,99293.00
2022-12-25T07:10:27.020Z,99297.00
2022-12-25T07:11:26.969Z,99297.00
2022-12-25T07:12:27.000Z,99301.00
2022-12-25T07:13:27.004Z,99297.00
2022-12-25T07:14:27.030Z,99303.00
2022-12-25T07:15:27.070Z,99304.00
2022-12-25T07:16:27.126Z,99299.00
2022-12-25T07:17:27.104Z,99300.00
2022-12-25T07:18:27.120Z,99304.00
2022-12-25T07:19:27.139Z,99303.00
2022-12-25T07:20:27.152Z,99306.00
2022-12-25T07:21:27.198Z,99307.00
2022-12-25T07:22:27.168Z,99310.00
2022-12-25T07:23:27.177Z,99303.00
2022-12-25T07:24:27.200Z,99308.00
2022-12-25T07:25:30.849Z,99303.00
2022-12-25T07:26:27.223Z,99303.00
2022-12-25T07:27:27.255Z,99304.00
2022-12-25T07:28:27.218Z,99301.00
2022-12-25T07:29:27.227Z,99298.00
2022-12-25T07:30:27.239Z,99301.00
2022-12-25T07:31:27.280Z,99305.00
2022-12-25T07:32:27.292Z,99302.00
2022-12-25T07:33:27.337Z,99294.00
2022-12-25T07:34:27.309Z,99304.00
2022-12-25T07:35:27.332Z,99306.00
2022-12-25T07:36:27.339Z,99306.00
2022-12-25T07:37:27.388Z,99303.00
2022-12-25T07:38:27.348Z,99303.00
2022-12-25T07:39:27.337Z,99306.00
2022-12-25T07:40:27.345Z,99306.00
2022-12-25T07:41:27.376Z,99308.00
2022-12-25T07:42:27.441Z,99309.00
2022-12-25T07:43:27.426Z,99313.00
2022-12-25T07:44:27.396Z,99311.00
2022-12-25T07:45:27.424Z,99309.00
2022-12-25T07:46:27.523Z,99308.00
2022-12-25T07:47:27.488Z,99307.00
2022-12-25T07:48:27.466Z,99307.00
2022-12-25T07:49:27.501Z,99301.00
2022-12-25T07:50:27.619Z,99295.00
2022-12-25T07:51:27.485Z,99296.00
2022-12-25T07:52:27.528Z,99296.00
2022-12-25T07:53:27.555Z,99297.00
2022-12-25T07:54:27.561Z,99296.00
2022-12-25T07:55:27.597Z,99298.00
2022-12-25T07:56:27.610Z,99305.00
2022-12-25T07:57:27.671Z,99305.00
2022-12-25T07:58:27.674Z,99315.00
2022-12-25T07:59:27.697Z,99317.00
2022-12-25T08:00:27.771Z,99318.00
2022-12-25T08:01:28.085Z,99320.00
2022-12-25T08:02:28.063Z,99321.00
2022-12-25T08:03:27.904Z,99322.00
2022-12-25T08:04:27.746Z,99316.00
2022-12-25T08:05:27.777Z,99321.00
2022-12-25T08:06:27.999Z,99318.00
2022-12-25T08:07:27.790Z,99317.00
2022-12-25T08:08:27.796Z,99316.00
2022-12-25T08:09:27.838Z,99313.00
2022-12-25T08:10:27.834Z,99314.00
2022-12-25T08:11:27.889Z,99306.00
2022-12-25T08:12:27.904Z,99301.00
2022-12-25T08:13:27.856Z,99300.00
2022-12-25T08:14:27.887Z,99296.00
2022-12-25T08:15:27.908Z,99296.00
2022-12-25T08:16:28.022Z,99294.00
2022-12-25T08:17:27.973Z,99301.00
2022-12-25T08:18:30.232Z,99302.00
2022-12-25T08:19:27.950Z,99308.00
2022-12-25T08:20:27.929Z,99312.00
2022-12-25T08:21:32.246Z,99314.00
2022-12-25T08:22:27.968Z,99309.00
2022-12-25T08:23:27.994Z,99309.00
2022-12-25T08:24:28.019Z,99308.00
2022-12-25T08:25:28.087Z,99304.00
2022-12-25T08:26:28.070Z,99300.00
2022-12-25T08:27:28.348Z,99302.00
2022-12-25T08:28:28.093Z,99295.00
2022-12-25T08:29:28.123Z,99293.00
2022-12-25T08:30:28.217Z,99290.00
2022-12-25T08:31:28.262Z,99293.00
2022-12-25T08:32:28.218Z,99292.00
2022-12-25T08:33:28.183Z,99290.00
2022-12-25T08:34:28.196Z,99289.00
2022-12-25T08:35:28.245Z,99289.00
2022-12-25T08:36:28.228Z,99292.00
2022-12-25T08:37:28.279Z,99298.00
2022-12-25T08:38:28.248Z,99299.00
2022-12-25T08:39:28.282Z,99308.00
2022-12-25T08:40:28.313Z,99310.00
2022-12-25T08:41:28.348Z,99304.00
2022-12-25T08:42:28.385Z,99301.00
2022-12-25T08:43:28.354Z,99299.00
2022-12-25T08:44:28.373Z,99298.00
2022-12-25T08:45:34.549Z,99300.00
2022-12-25T08:46:28.503Z,99301.00
2022-12-25T08:47:28.405Z,99293.00
2022-12-25T08:48:28.399Z,99297.00
2022-12-25T08:49:28.433Z,99295.00
2022-12-25T08:50:28.455Z,99294.00
2022-12-25T08:51:28.480Z,99292.00
2022-12-25T08:52:28.513Z,99292.00
2022-12-25T08:53:28.534Z,99296.00
2022-12-25T08:54:28.557Z,99293.00
2022-12-25T08:55:28.574Z,99287.00
2022-12-25T08:56:28.631Z,99292.00
2022-12-25T08:57:28.871Z,99290.00
2022-12-25T08:58:28.707Z,99291.00
2022-12-25T08:59:28.581Z,99291.00
2022-12-25T09:00:28.604Z,99292.00
2022-12-25T09:01:28.804Z,99294.00
2022-12-25T09:02:28.837Z,99295.00
2022-12-25T09:03:28.742Z,99292.00
2022-12-25T09:04:28.681Z,99291.00
2022-12-25T09:05:28.734Z,99290.00
2022-12-25T09:06:28.743Z,99289.00
2022-12-25T09:07:28.788Z,99293.00
2022-12-25T09:08:28.779Z,99299.00
2022-12-25T09:09:28.766Z,99293.00
2022-12-25T09:10:28.752Z,99293.00
2022-12-25T09:11:28.786Z,99300.00
2022-12-25T09:12:28.793Z,99295.00
2022-12-25T09:13:28.848Z,99295.00
2022-12-25T09:14:28.807Z,99293.00
2022-12-25T09:15:28.875Z,99288.00
2022-12-25T09:16:28.955Z,99278.00
2022-12-25T09:17:28.903Z,99273.00
2022-12-25T09:18:28.934Z,99271.00
2022-12-25T09:19:28.956Z,99267.00
2022-12-25T09:20:28.987Z,99266.00
2022-12-25T09:21:29.016Z,99268.00
2022-12-25T09:22:29.064Z,99265.00
2022-12-25T09:23:29.023Z,99265.00
2022-12-25T09:24:29.051Z,99258.00
2022-12-25T09:25:29.091Z,99256.00
2022-12-25T09:26:29.088Z,99254.00
2022-12-25T09:27:29.113Z,99253.00
2022-12-25T09:28:29.099Z,99245.00
2022-12-25T09:29:29.160Z,99246.00
2022-12-25T09:30:29.247Z,99236.00
2022-12-25T09:31:29.216Z,99228.00
2022-12-25T09:32:29.154Z,99227.00
2022-12-25T09:33:29.169Z,99214.00
2022-12-25T09:34:29.217Z,99201.00
2022-12-25T09:35:29.191Z,99191.00
2022-12-25T09:36:29.205Z,99188.00
2022-12-25T09:37:29.260Z,99182.00
2022-12-25T09:38:29.241Z,99184.00
2022-12-25T09:39:29.252Z,99185.00
2022-12-25T09:40:29.285Z,99191.00
2022-12-25T09:41:29.326Z,99186.00
2022-12-25T09:42:29.334Z,99192.00
2022-12-25T09:43:29.346Z,99187.00
2022-12-25T09:44:29.373Z,99189.00
2022-12-25T09:45:29.416Z,99191.00
2022-12-25T09:46:36.752Z,99196.00
2022-12-25T09:47:29.417Z,99202.00
2022-12-25T09:48:29.402Z,99204.00
2022-12-25T09:49:29.436Z,99213.00
2022-12-25T09:50:29.425Z,99212.00
2022-12-25T09:51:29.444Z,99210.00
2022-12-25T09:52:29.463Z,99210.00
2022-12-25T09:53:29.508Z,99211.00
2022-12-25T09:54:29.536Z,99210.00
2022-12-25T09:55:29.550Z,99216.00
2022-12-25T09:56:29.575Z,99219.00
2022-12-25T09:57:29.606Z,99229.00
2022-12-25T09:58:29.631Z,99240.00
2022-12-25T09:59:29.653Z,99243.00
2022-12-25T10:00:29.643Z,99254.00
2022-12-25T10:01:29.863Z,99261.00
2022-12-25T10:02:29.825Z,99273.00
2022-12-25T10:03:29.763Z,99279.00
2022-12-25T10:04:29.759Z,99283.00
2022-12-25T10:05:29.774Z,99288.00
2022-12-25T10:06:29.767Z,99286.00
2022-12-25T10:07:29.790Z,99280.00
2022-12-25T10:08:29.816Z,99273.00
2022-12-25T10:09:29.836Z,99278.00
2022-12-25T10:10:29.850Z,99282.00
2022-12-25T10:11:29.870Z,99283.00
2022-12-25T10:12:29.905Z,99285.00
2022-12-25T10:13:29.933Z,99288.00
2022-12-25T10:14:29.983Z,99289.00
2022-12-25T10:15:29.989Z,99284.00
2022-12-25T10:16:30.033Z,99290.00
2022-12-25T10:17:29.988Z,99291.00
2022-12-25T10:18:29.959Z,99284.00
2022-12-25T10:19:30.003Z,99288.00
2022-12-25T10:20:30.001Z,99286.00
2022-12-25T10:21:30.000Z,99285.00
2022-12-25T10:22:30.034Z,99285.00
2022-12-25T10:23:30.017Z,99280.00
2022-12-25T10:24:30.061Z,99277.00
2022-12-25T10:25:30.061Z,99271.00
2022-12-25T10:26:30.081Z,99264.00
2022-12-25T10:27:30.051Z,99258.00
2022-12-25T10:28:30.075Z,99252.00
2022-12-25T10:29:30.065Z,99248.00
2022-12-25T10:30:30.065Z,99240.00
2022-12-25T10:31:30.123Z,99232.00
2022-12-25T10:32:30.076Z,99230.00
2022-12-25T10:33:30.061Z,99233.00
2022-12-25T10:34:30.044Z,99231.00
2022-12-25T10:35:30.057Z,99226.00
2022-12-25T10:36:30.064Z,99223.00
2022-12-25T10:37:30.084Z,99226.00
2022-12-25T10:38:30.139Z,99217.00
2022-12-25T10:39:30.119Z,99209.00
2022-12-25T10:40:30.115Z,99209.00
2022-12-25T10:41:30.091Z,99208.00
2022-12-25T10:42:30.123Z,99209.00
2022-12-25T10:43:30.149Z,99203.00
2022-12-25T10:44:30.239Z,99202.00
2022-12-25T10:45:30.183Z,99205.00
2022-12-25T10:46:30.238Z,99205.00
2022-12-25T10:47:30.191Z,99209.00
2022-12-25T10:48:30.229Z,99210.00
2022-12-25T10:49:30.242Z,99209.00
2022-12-25T10:50:30.217Z,99212.00
2022-12-25T10:51:30.240Z,99208.00
2022-12-25T10:52:30.271Z,99205.00
2022-12-25T10:53:30.293Z,99202.00
2022-12-25T10:54:30.319Z,99195.00
2022-12-25T10:55:30.307Z,99196.00
2022-12-25T10:56:30.335Z,99194.00
2022-12-25T10:57:30.361Z,99198.00
2022-12-25T10:58:30.454Z,99197.00
2022-12-25T10:59:30.408Z,99194.00
2022-12-25T11:00:30.456Z,99195.00
2022-12-25T11:01:30.587Z,99192.00
2022-12-25T11:02:30.711Z,99194.00
2022-12-25T11:03:30.603Z,99192.00
2022-12-25T11:04:30.479Z,99185.00
2022-12-25T11:05:30.499Z,99184.00
2022-12-25T11:06:30.493Z,99180.00
2022-12-25T11:07:30.459Z,99178.00
2022-12-25T11:08:30.497Z,99183.00
2022-12-25T11:09:30.556Z,99181.00
2022-12-25T11:10:30.536Z,99181.00
2022-12-25T11:11:30.573Z,99182.00
2022-12-25T11:12:30.671Z,99179.00
2022-12-25T11:13:30.621Z,99174.00
2022-12-25T11:14:30.678Z,99172.00
2022-12-25T11:15:30.656Z,99167.00
2022-12-25T11:16:30.824Z,99165.00
2022-12-25T11:17:30.728Z,99158.00
2022-12-25T11:18:30.750Z,99158.00
2022-12-25T11:19:30.766Z,99152.00
2022-12-25T11:20:30.802Z,99155.00
2022-12-25T11:21:30.843Z,99147.00
2022-12-25T11:22:30.857Z,99151.00
2022-12-25T11:23:30.884Z,99143.00
2022-12-25T11:24:30.917Z,99144.00
2022-12-25T11:25:30.917Z,99145.00
2022-12-25T11:26:30.929Z,99143.00
2022-12-25T11:27:30.951Z,99137.00
2022-12-25T11:28:30.971Z,99131.00
2022-12-25T11:29:30.995Z,99132.00
2022-12-25T11:30:31.045Z,99129.00
2022-12-25T11:31:31.076Z,99130.00
2022-12-25T11:32:30.995Z,99131.00
2022-12-25T11:33:31.030Z,99128.00
2022-12-25T11:34:31.078Z,99125.00
2022-12-25T11:35:31.071Z,99125.00
2022-12-25T11:36:31.085Z,99124.00
2022-12-25T11:37:31.127Z,99121.00
2022-12-25T11:38:31.143Z,99121.00
2022-12-25T11:39:31.179Z,99118.00
2022-12-25T11:40:31.205Z,99121.00
2022-12-25T11:41:31.178Z,99109.00
2022-12-25T11:42:31.215Z,99108.00
2022-12-25T11:43:31.220Z,99104.00
2022-12-25T11:44:31.266Z,99106.00